Time;durP1;ratioP1;P1;durP2;ratioP2;P2;SDS_P1;SDS_P2;PMS_P1;PMS_P2;Temp;Humidity;BMP_temperature;BMP_pressure;BME280_temperature;BME280_humidity;BME280_pressure;Samples;Min_cycle;Max_cycle;Signal;HPM_P1;HPM_P2
2023/03/08 00:01:49;;;;;;;12.70;8.07;;;;;;;;;;5039522;28;20036;-75
2023/03/08 00:04:15;;;;;;;14.33;7.77;;;;;;;;;;5038995;28;20086;-75
2023/03/08 00:06:41;;;;;;;12.80;7.77;;;;;;;;;;5054965;28;20037;-76
2023/03/08 00:09:07;;;;;;;15.83;7.60;;;;;;;;;;5039418;28;20029;-75
2023/03/08 00:11:33;;;;;;;13.80;7.47;;;;;;;;;;5035538;28;20442;-74
2023/03/08 00:14:02;;;;;;;15.73;8.17;;;;;;;;;;5051929;28;20041;-75
2023/03/08 00:16:28;;;;;;;16.07;7.53;;;;;;;;;;5036149;28;20032;-76
2023/03/08 00:18:54;;;;;;;13.53;7.50;;;;;;;;;;5055127;28;20398;-75
2023/03/08 00:21:20;;;;;;;13.53;8.10;;;;;;;;;;5046461;28;21323;-76
2023/03/08 00:23:46;;;;;;;12.10;8.00;;;;;;;;;;5039551;28;20032;-76
2023/03/08 00:26:12;;;;;;;15.20;7.83;;;;;;;;;;5037920;28;20283;-74
2023/03/08 00:28:39;;;;;;;14.53;7.87;;;;;;;;;;5039199;28;21186;-74
2023/03/08 00:31:06;;;;;;;12.57;7.70;;;;;;;;;;5039876;28;20349;-75
2023/03/08 00:33:32;;;;;;;15.10;7.43;;;;;;;;;;5035990;28;20310;-75
2023/03/08 00:35:59;;;;;;;14.53;7.40;;;;;;;;;;5040282;28;20303;-76
2023/03/08 00:38:26;;;;;;;20.30;7.87;;;;;;;;;;5054388;28;20314;-76
2023/03/08 00:40:52;;;;;;;18.50;8.07;;;;;;;;;;5053294;28;20763;-75
2023/03/08 00:43:18;;;;;;;16.53;7.70;;;;;;;;;;5038978;28;20298;-75
2023/03/08 00:45:44;;;;;;;16.10;7.87;;;;;;;;;;5055414;28;20328;-75
2023/03/08 00:48:10;;;;;;;14.93;7.43;;;;;;;;;;5054231;28;20688;-75
2023/03/08 00:50:36;;;;;;;13.40;7.70;;;;;;;;;;5039003;28;20352;-74
2023/03/08 00:53:02;;;;;;;14.53;8.30;;;;;;;;;;5040222;28;20271;-75
2023/03/08 00:55:28;;;;;;;16.70;8.40;;;;;;;;;;5041237;28;20298;-75
2023/03/08 00:57:54;;;;;;;12.70;8.20;;;;;;;;;;5038946;28;20025;-75
2023/03/08 01:00:23;;;;;;;19.00;8.80;;;;;;;;;;5053915;28;20029;-75
2023/03/08 01:02:49;;;;;;;16.33;8.07;;;;;;;;;;5039480;28;20156;-75
2023/03/08 01:05:15;;;;;;;19.03;7.37;;;;;;;;;;5036841;28;20358;-75
2023/03/08 01:07:40;;;;;;;15.67;8.53;;;;;;;;;;5035768;28;20041;-75
2023/03/08 01:10:07;;;;;;;16.67;8.63;;;;;;;;;;5053597;28;20028;-75
2023/03/08 01:12:33;;;;;;;14.90;7.83;;;;;;;;;;5036090;28;20034;-75
2023/03/08 01:14:59;;;;;;;15.43;7.43;;;;;;;;;;5052975;28;20283;-75
2023/03/08 01:17:25;;;;;;;17.17;7.90;;;;;;;;;;5053402;28;20731;-75
2023/03/08 01:19:51;;;;;;;17.43;7.80;;;;;;;;;;5051596;28;20039;-75
2023/03/08 01:22:17;;;;;;;14.23;7.50;;;;;;;;;;5052845;28;20037;-75
2023/03/08 01:24:44;;;;;;;16.97;7.70;;;;;;;;;;5054718;28;20037;-75
2023/03/08 01:27:10;;;;;;;17.73;8.63;;;;;;;;;;5034538;28;20127;-75
2023/03/08 01:29:36;;;;;;;16.70;9.13;;;;;;;;;;5055060;28;20468;-75
2023/03/08 01:32:02;;;;;;;14.90;7.87;;;;;;;;;;5056338;28;20361;-75
2023/03/08 01:34:28;;;;;;;22.33;8.83;;;;;;;;;;5039733;28;20028;-74
2023/03/08 01:36:54;;;;;;;22.30;9.27;;;;;;;;;;5053499;28;20029;-75
2023/03/08 01:39:20;;;;;;;17.97;9.60;;;;;;;;;;5040580;28;20379;-75
2023/03/08 01:41:46;;;;;;;16.00;8.30;;;;;;;;;;5039623;28;20378;-75
2023/03/08 01:44:15;;;;;;;14.83;7.93;;;;;;;;;;5037835;28;20036;-75
2023/03/08 01:46:41;;;;;;;18.40;8.70;;;;;;;;;;5053825;28;20317;-75
2023/03/08 01:49:08;;;;;;;14.00;7.87;;;;;;;;;;5054216;28;20395;-75
2023/03/08 01:51:36;;;;;;;15.93;8.13;;;;;;;;;;5057267;28;20315;-75
2023/03/08 01:54:06;;;;;;;16.07;8.23;;;;;;;;;;5058460;28;20032;-74
2023/03/08 01:56:32;;;;;;;16.30;7.90;;;;;;;;;;5056559;28;20275;-75
2023/03/08 01:59:02;;;;;;;16.67;8.67;;;;;;;;;;5055994;28;20306;-76
2023/03/08 02:01:28;;;;;;;15.83;8.30;;;;;;;;;;5058139;28;20283;-75
2023/03/08 02:03:54;;;;;;;17.20;9.13;;;;;;;;;;5056998;28;20332;-75
2023/03/08 02:06:20;;;;;;;21.17;8.23;;;;;;;;;;5058418;28;20056;-74
2023/03/08 02:08:46;;;;;;;17.03;8.10;;;;;;;;;;5056622;28;20390;-74
2023/03/08 02:11:13;;;;;;;16.10;8.37;;;;;;;;;;5058039;28;20857;-75
2023/03/08 02:13:39;;;;;;;20.40;8.70;;;;;;;;;;5056171;28;20289;-74
2023/03/08 02:16:08;;;;;;;17.97;8.47;;;;;;;;;;5044538;28;20305;-75
2023/03/08 02:18:34;;;;;;;15.10;8.83;;;;;;;;;;5039920;28;20286;-75
2023/03/08 02:21:00;;;;;;;15.03;8.23;;;;;;;;;;5054865;28;20276;-74
2023/03/08 02:23:27;;;;;;;20.73;9.27;;;;;;;;;;5056967;28;20445;-75
2023/03/08 02:25:58;;;;;;;20.43;9.57;;;;;;;;;;5058952;28;20278;-75
2023/03/08 02:28:26;;;;;;;26.43;8.83;;;;;;;;;;5043724;28;20270;-75
2023/03/08 02:30:54;;;;;;;23.80;10.20;;;;;;;;;;5052013;28;20267;-75
2023/03/08 02:33:23;;;;;;;20.20;9.67;;;;;;;;;;5057841;28;20278;-75
2023/03/08 02:35:49;;;;;;;17.80;9.03;;;;;;;;;;5057380;28;20275;-75
2023/03/08 02:38:16;;;;;;;18.67;9.63;;;;;;;;;;5057684;28;20346;-75
2023/03/08 02:40:42;;;;;;;18.47;10.33;;;;;;;;;;5037791;28;20288;-75
2023/03/08 02:43:08;;;;;;;22.80;11.07;;;;;;;;;;5070997;28;20289;-75
2023/03/08 02:45:34;;;;;;;25.77;11.20;;;;;;;;;;5067015;28;20362;-75
2023/03/08 02:48:01;;;;;;;21.80;11.87;;;;;;;;;;5074062;28;20345;-75
2023/03/08 02:50:27;;;;;;;22.23;11.03;;;;;;;;;;5076414;28;20094;-75
2023/03/08 02:52:53;;;;;;;25.43;11.83;;;;;;;;;;5047143;28;20275;-75
2023/03/08 02:55:19;;;;;;;26.63;11.53;;;;;;;;;;5057220;28;20275;-75
2023/03/08 02:57:45;;;;;;;30.53;12.37;;;;;;;;;;5045362;28;20028;-75
2023/03/08 03:00:14;;;;;;;25.17;11.37;;;;;;;;;;5058422;28;20599;-76
2023/03/08 03:02:40;;;;;;;24.17;12.57;;;;;;;;;;5047812;28;20288;-75
2023/03/08 03:05:09;;;;;;;25.77;12.47;;;;;;;;;;5058514;28;20278;-76
2023/03/08 03:07:36;;;;;;;26.53;12.73;;;;;;;;;;5066188;28;20330;-75
2023/03/08 03:10:03;;;;;;;29.80;12.97;;;;;;;;;;5062188;28;20279;-75
2023/03/08 03:12:29;;;;;;;29.40;13.27;;;;;;;;;;5068430;28;20421;-76
2023/03/08 03:14:55;;;;;;;26.23;12.77;;;;;;;;;;5050328;28;20306;-75
2023/03/08 03:17:21;;;;;;;39.53;15.47;;;;;;;;;;5066544;28;20325;-76
2023/03/08 03:19:47;;;;;;;30.50;14.40;;;;;;;;;;5043322;28;20206;-75
2023/03/08 03:22:13;;;;;;;32.37;14.70;;;;;;;;;;5049203;28;20377;-76
2023/03/08 03:24:39;;;;;;;35.63;14.60;;;;;;;;;;5057944;28;20085;-75
2023/03/08 03:27:05;;;;;;;32.57;15.40;;;;;;;;;;5047859;28;20025;-76
2023/03/08 03:29:31;;;;;;;34.00;14.30;;;;;;;;;;5067119;28;20584;-75
2023/03/08 03:32:00;;;;;;;34.60;15.27;;;;;;;;;;5065649;28;20031;-75
2023/03/08 03:34:26;;;;;;;36.50;15.97;;;;;;;;;;5075252;28;20044;-75
2023/03/08 03:36:52;;;;;;;34.37;14.73;;;;;;;;;;5055068;28;20263;-75
2023/03/08 03:39:17;;;;;;;38.37;15.77;;;;;;;;;;5073826;28;20286;-75
2023/03/08 03:41:43;;;;;;;39.57;15.73;;;;;;;;;;5056345;28;20082;-75
2023/03/08 03:44:09;;;;;;;31.53;14.37;;;;;;;;;;5065456;28;20032;-76
2023/03/08 03:46:38;;;;;;;35.87;15.10;;;;;;;;;;5069820;28;20024;-76
2023/03/08 03:49:04;;;;;;;35.17;15.13;;;;;;;;;;5051780;28;20275;-76
2023/03/08 03:51:30;;;;;;;41.43;15.20;;;;;;;;;;5044558;28;20366;-75
2023/03/08 03:53:57;;;;;;;46.27;16.70;;;;;;;;;;5074418;28;20461;-75
2023/03/08 03:56:24;;;;;;;39.70;15.13;;;;;;;;;;5053276;28;20024;-75
2023/03/08 03:58:50;;;;;;;40.90;15.57;;;;;;;;;;5055680;28;20361;-76
2023/03/08 04:01:16;;;;;;;40.17;14.93;;;;;;;;;;5045600;28;20283;-75
2023/03/08 04:03:43;;;;;;;37.63;15.03;;;;;;;;;;5040972;28;20350;-75
2023/03/08 04:06:10;;;;;;;40.20;15.43;;;;;;;;;;5053180;28;20035;-75
2023/03/08 04:08:41;;;;;;;42.77;16.43;;;;;;;;;;5074573;28;20615;-75
2023/03/08 04:11:08;;;;;;;37.13;14.37;;;;;;;;;;5047444;28;20339;-75
2023/03/08 04:13:34;;;;;;;39.90;15.47;;;;;;;;;;5060289;28;20281;-75
2023/03/08 04:16:00;;;;;;;37.23;15.00;;;;;;;;;;5046750;28;20272;-75
2023/03/08 04:18:26;;;;;;;40.97;15.47;;;;;;;;;;5046353;28;20094;-74
2023/03/08 04:20:51;;;;;;;47.07;14.97;;;;;;;;;;5056391;28;20450;-73
2023/03/08 04:23:17;;;;;;;35.67;14.73;;;;;;;;;;5054345;28;20060;-75
2023/03/08 04:25:46;;;;;;;41.67;15.47;;;;;;;;;;5045594;28;20029;-74
2023/03/08 04:28:14;;;;;;;42.43;15.83;;;;;;;;;;5053435;28;20051;-74
2023/03/08 04:30:40;;;;;;;40.33;15.53;;;;;;;;;;5054563;28;20267;-74
2023/03/08 04:33:06;;;;;;;42.50;16.97;;;;;;;;;;5055769;28;20279;-75
2023/03/08 04:35:32;;;;;;;37.97;15.90;;;;;;;;;;5056364;28;20086;-74
2023/03/08 04:37:58;;;;;;;39.33;15.63;;;;;;;;;;5039861;28;20047;-74
2023/03/08 04:40:24;;;;;;;53.90;16.57;;;;;;;;;;5053789;28;20086;-75
2023/03/08 04:42:50;;;;;;;49.63;17.20;;;;;;;;;;5055551;28;20477;-74
2023/03/08 04:45:16;;;;;;;48.33;17.77;;;;;;;;;;5051073;28;20120;-75
2023/03/08 04:47:42;;;;;;;51.87;19.27;;;;;;;;;;5035414;28;20044;-75
2023/03/08 04:50:11;;;;;;;52.13;18.10;;;;;;;;;;5053713;28;20275;-73
2023/03/08 04:52:37;;;;;;;45.60;19.43;;;;;;;;;;5038133;28;20064;-74
2023/03/08 04:55:03;;;;;;;48.33;17.97;;;;;;;;;;5053026;28;20774;-74
2023/03/08 04:57:29;;;;;;;53.47;19.10;;;;;;;;;;5039314;28;20037;-75
2023/03/08 04:59:55;;;;;;;50.43;19.00;;;;;;;;;;5055881;28;20401;-74
2023/03/08 05:02:21;;;;;;;51.90;18.13;;;;;;;;;;5053762;28;20367;-76
2023/03/08 05:04:47;;;;;;;54.27;19.60;;;;;;;;;;5054871;28;20274;-76
2023/03/08 05:07:13;;;;;;;48.67;17.50;;;;;;;;;;5054885;28;20339;-75
2023/03/08 05:09:39;;;;;;;45.10;17.77;;;;;;;;;;5045061;28;20072;-77
2023/03/08 05:12:08;;;;;;;50.23;18.20;;;;;;;;;;5053720;28;20025;-75
2023/03/08 05:14:34;;;;;;;54.27;18.27;;;;;;;;;;5054530;28;20098;-74
2023/03/08 05:17:00;;;;;;;50.97;19.97;;;;;;;;;;5040265;28;20271;-74
2023/03/08 05:19:26;;;;;;;49.60;18.67;;;;;;;;;;5052086;28;20048;-75
2023/03/08 05:21:52;;;;;;;54.27;18.77;;;;;;;;;;5053268;28;20051;-74
2023/03/08 05:24:18;;;;;;;51.47;18.97;;;;;;;;;;5053228;28;20090;-77
2023/03/08 05:26:44;;;;;;;48.57;18.43;;;;;;;;;;5039538;28;20035;-77
2023/03/08 05:29:10;;;;;;;40.67;17.90;;;;;;;;;;5058082;28;20031;-74
2023/03/08 05:31:36;;;;;;;44.77;18.00;;;;;;;;;;5058248;28;20047;-75
2023/03/08 05:34:02;;;;;;;47.43;19.63;;;;;;;;;;5043610;28;20040;-75
2023/03/08 05:36:28;;;;;;;45.77;19.07;;;;;;;;;;5042188;28;20275;-76
2023/03/08 05:38:54;;;;;;;44.30;19.87;;;;;;;;;;5044672;28;20531;-74
2023/03/08 05:41:21;;;;;;;51.07;20.30;;;;;;;;;;5042382;28;20033;-74
2023/03/08 05:43:47;;;;;;;46.70;19.63;;;;;;;;;;5049805;28;20302;-75
2023/03/08 05:46:17;;;;;;;53.57;21.13;;;;;;;;;;5056153;28;20298;-75
2023/03/08 05:48:43;;;;;;;55.23;21.67;;;;;;;;;;5046795;28;20283;-75
2023/03/08 05:51:10;;;;;;;43.00;19.13;;;;;;;;;;5041652;28;20799;-75
2023/03/08 05:53:37;;;;;;;56.73;21.17;;;;;;;;;;5058605;28;20032;-75
2023/03/08 05:56:22;;;;;;;56.33;20.07;;;;;;;;;;5048890;28;20354;-75
2023/03/08 05:58:48;;;;;;;45.37;18.17;;;;;;;;;;5043820;28;20268;-74
2023/03/08 06:01:19;;;;;;;44.20;18.30;;;;;;;;;;5043390;28;20382;-74
2023/03/08 06:03:45;;;;;;;44.57;18.37;;;;;;;;;;5059971;28;20036;-74
2023/03/08 06:06:12;;;;;;;50.60;19.10;;;;;;;;;;5059729;28;20275;-73
2023/03/08 06:08:38;;;;;;;47.40;19.20;;;;;;;;;;5041937;28;20316;-74
2023/03/08 06:11:06;;;;;;;51.10;19.17;;;;;;;;;;5049243;28;20337;-75
2023/03/08 06:13:33;;;;;;;54.93;20.70;;;;;;;;;;5037236;28;20345;-75
2023/03/08 06:15:59;;;;;;;46.57;19.13;;;;;;;;;;5056329;28;20307;-74
2023/03/08 06:18:25;;;;;;;52.40;19.70;;;;;;;;;;5043328;28;20278;-75
2023/03/08 06:20:59;;;;;;;51.63;20.00;;;;;;;;;;5049813;28;20340;-74
2023/03/08 06:23:25;;;;;;;53.40;20.20;;;;;;;;;;5057028;28;20286;-74
2023/03/08 06:25:51;;;;;;;46.70;17.87;;;;;;;;;;5064052;28;20263;-74
2023/03/08 06:28:20;;;;;;;52.17;19.33;;;;;;;;;;5053029;28;20271;-74
2023/03/08 06:30:50;;;;;;;52.30;19.70;;;;;;;;;;5049467;28;20279;-75
2023/03/08 06:33:16;;;;;;;46.07;17.93;;;;;;;;;;5055899;28;20278;-74
2023/03/08 06:35:42;;;;;;;45.07;17.67;;;;;;;;;;5044374;28;20303;-75
2023/03/08 06:38:08;;;;;;;38.50;16.07;;;;;;;;;;5058427;28;20275;-75
2023/03/08 06:40:34;;;;;;;45.73;16.47;;;;;;;;;;5047410;28;20298;-75
2023/03/08 06:43:00;;;;;;;42.73;16.13;;;;;;;;;;5056958;28;20375;-75
2023/03/08 06:45:27;;;;;;;39.87;16.57;;;;;;;;;;5044352;28;20282;-74
2023/03/08 06:47:53;;;;;;;43.80;16.37;;;;;;;;;;5043684;28;20036;-74
2023/03/08 06:50:19;;;;;;;46.43;18.47;;;;;;;;;;5054626;28;20272;-75
2023/03/08 06:52:45;;;;;;;41.13;17.03;;;;;;;;;;5058765;28;20275;-75
2023/03/08 06:55:11;;;;;;;42.87;16.87;;;;;;;;;;5036977;28;20333;-75
2023/03/08 06:57:37;;;;;;;38.33;15.33;;;;;;;;;;5039071;28;20316;-76
2023/03/08 07:00:03;;;;;;;36.67;14.77;;;;;;;;;;5041833;28;20271;-75
2023/03/08 07:02:31;;;;;;;37.03;14.43;;;;;;;;;;5056352;28;20034;-75
2023/03/08 07:04:57;;;;;;;32.47;14.00;;;;;;;;;;5046318;28;20271;-75
2023/03/08 07:07:26;;;;;;;35.73;14.33;;;;;;;;;;5055118;28;20333;-75
2023/03/08 07:09:57;;;;;;;34.57;14.33;;;;;;;;;;5039426;28;20021;-75
2023/03/08 07:12:23;;;;;;;31.37;14.07;;;;;;;;;;5051061;28;20275;-75
2023/03/08 07:14:52;;;;;;;30.97;13.47;;;;;;;;;;5055354;28;20366;-75
2023/03/08 07:17:18;;;;;;;26.83;13.10;;;;;;;;;;5044180;28;20283;-75
2023/03/08 07:19:44;;;;;;;28.97;12.43;;;;;;;;;;5039897;28;21099;-73
2023/03/08 07:22:11;;;;;;;33.50;14.87;;;;;;;;;;5057261;28;20442;-75
2023/03/08 07:24:38;;;;;;;32.10;14.70;;;;;;;;;;5055455;28;20278;-74
2023/03/08 07:27:04;;;;;;;34.60;16.63;;;;;;;;;;5054137;28;20263;-75
2023/03/08 07:29:30;;;;;;;53.33;25.13;;;;;;;;;;5055089;28;20290;-75
2023/03/08 07:31:56;;;;;;;46.73;24.03;;;;;;;;;;5056466;28;20321;-75
2023/03/08 07:34:22;;;;;;;37.83;20.13;;;;;;;;;;5042335;28;20040;-75
2023/03/08 07:36:49;;;;;;;34.37;21.00;;;;;;;;;;5043062;28;20048;-75
2023/03/08 07:39:16;;;;;;;37.17;18.67;;;;;;;;;;5055478;28;20353;-75
2023/03/08 07:41:42;;;;;;;33.97;17.03;;;;;;;;;;5038967;28;20313;-76
2023/03/08 07:44:08;;;;;;;33.57;17.27;;;;;;;;;;5057305;28;20279;-75
2023/03/08 07:46:34;;;;;;;31.33;16.40;;;;;;;;;;5056219;28;20036;-75
2023/03/08 07:49:00;;;;;;;31.17;16.23;;;;;;;;;;5056126;28;20271;-75
2023/03/08 07:51:26;;;;;;;31.17;16.17;;;;;;;;;;5057314;28;20035;-76
2023/03/08 07:53:52;;;;;;;30.30;15.50;;;;;;;;;;5055891;28;20454;-75
2023/03/08 07:56:18;;;;;;;28.97;16.53;;;;;;;;;;5056158;28;20321;-75
2023/03/08 07:58:44;;;;;;;30.50;15.70;;;;;;;;;;5053957;28;20386;-75
2023/03/08 08:01:11;;;;;;;28.13;16.70;;;;;;;;;;5042501;28;20041;-75
2023/03/08 08:03:37;;;;;;;26.17;15.17;;;;;;;;;;5040211;28;20291;-74
2023/03/08 08:06:04;;;;;;;24.07;15.37;;;;;;;;;;5056772;28;20285;-75
2023/03/08 08:08:30;;;;;;;25.57;14.67;;;;;;;;;;5057673;28;20297;-75
2023/03/08 08:10:56;;;;;;;28.23;16.70;;;;;;;;;;5055248;28;20281;-74
2023/03/08 08:13:24;;;;;;;27.07;16.10;;;;;;;;;;5055425;28;20279;-76
2023/03/08 08:15:58;;;;;;;27.57;18.40;;;;;;;;;;5047753;28;20033;-76
2023/03/08 08:18:24;;;;;;;29.80;16.00;;;;;;;;;;5043392;28;20293;-75
2023/03/08 08:20:50;;;;;;;24.40;15.73;;;;;;;;;;5038602;28;20287;-75
2023/03/08 08:23:16;;;;;;;31.43;17.93;;;;;;;;;;5041885;28;20295;-76
2023/03/08 08:25:45;;;;;;;29.33;15.47;;;;;;;;;;5057055;28;20036;-77
2023/03/08 08:28:14;;;;;;;28.00;15.20;;;;;;;;;;5054698;28;20089;-76
2023/03/08 08:30:40;;;;;;;31.70;20.47;;;;;;;;;;5053589;28;20969;-76
2023/03/08 08:33:08;;;;;;;27.67;17.00;;;;;;;;;;5054520;28;20369;-76
2023/03/08 08:35:34;;;;;;;24.87;15.90;;;;;;;;;;5044238;28;20029;-77
2023/03/08 08:38:00;;;;;;;24.27;15.10;;;;;;;;;;5055119;28;20287;-76
2023/03/08 08:40:26;;;;;;;25.13;14.60;;;;;;;;;;5058076;28;20036;-76
2023/03/08 08:42:54;;;;;;;25.30;15.00;;;;;;;;;;5068448;28;21245;-76
2023/03/08 08:45:20;;;;;;;19.87;14.20;;;;;;;;;;5075201;28;20025;-77
2023/03/08 08:47:49;;;;;;;21.80;13.93;;;;;;;;;;5066094;28;20349;-77
2023/03/08 08:50:15;;;;;;;20.57;12.63;;;;;;;;;;5053187;28;20271;-76
2023/03/08 08:52:41;;;;;;;19.27;12.40;;;;;;;;;;5069128;28;20938;-76
2023/03/08 08:55:07;;;;;;;18.13;10.83;;;;;;;;;;5079190;28;20039;-77
2023/03/08 08:57:33;;;;;;;18.37;11.63;;;;;;;;;;5050370;28;20130;-77
2023/03/08 09:00:00;;;;;;;20.30;11.87;;;;;;;;;;5067556;28;20025;-77
2023/03/08 09:02:26;;;;;;;17.17;11.53;;;;;;;;;;5039469;28;20036;-78
2023/03/08 09:04:52;;;;;;;13.87;9.77;;;;;;;;;;5055210;28;20445;-79
2023/03/08 09:07:22;;;;;;;17.60;11.07;;;;;;;;;;5058401;28;20021;-79
2023/03/08 09:09:48;;;;;;;14.93;10.53;;;;;;;;;;5076571;28;20025;-79
2023/03/08 09:12:14;;;;;;;15.50;10.10;;;;;;;;;;5058108;28;20632;-80
2023/03/08 09:14:40;;;;;;;16.37;10.83;;;;;;;;;;5057966;28;20024;-80
2023/03/08 09:17:06;;;;;;;18.07;11.67;;;;;;;;;;5075408;28;20665;-79
2023/03/08 09:19:32;;;;;;;17.07;12.17;;;;;;;;;;5057895;28;20036;-79
2023/03/08 09:21:58;;;;;;;16.37;11.43;;;;;;;;;;5058093;28;20380;-79
2023/03/08 09:24:24;;;;;;;18.00;11.70;;;;;;;;;;5075196;28;20050;-79
2023/03/08 09:26:50;;;;;;;14.07;10.53;;;;;;;;;;5075774;28;20330;-79
2023/03/08 09:29:18;;;;;;;16.93;11.40;;;;;;;;;;5061576;28;20101;-79
2023/03/08 09:31:45;;;;;;;17.43;12.33;;;;;;;;;;5056963;28;20615;-79
2023/03/08 09:34:13;;;;;;;21.23;13.63;;;;;;;;;;5057545;28;20036;-79
2023/03/08 09:36:39;;;;;;;17.23;12.67;;;;;;;;;;5051956;28;20052;-78
2023/03/08 09:39:05;;;;;;;19.13;12.73;;;;;;;;;;5046084;28;20033;-77
2023/03/08 09:41:43;;;;;;;16.83;11.60;;;;;;;;;;5053463;28;20036;-77
2023/03/08 09:44:33;;;;;;;16.47;12.00;;;;;;;;;;5069474;28;20027;-77
2023/03/08 09:47:05;;;;;;;16.27;11.70;;;;;;;;;;5059232;28;20024;-76
2023/03/08 09:49:32;;;;;;;18.15;11.23;;;;;;;;;;5048798;28;20024;-76
2023/03/08 09:52:10;;;;;;;18.43;12.43;;;;;;;;;;5044421;28;20033;-76
2023/03/08 09:54:37;;;;;;;17.37;12.13;;;;;;;;;;5054339;28;20020;-77
2023/03/08 09:57:07;;;;;;;15.47;11.83;;;;;;;;;;5052920;28;20315;-76
2023/03/08 09:59:46;;;;;;;15.37;11.30;;;;;;;;;;5056471;28;20369;-76
2023/03/08 10:02:24;;;;;;;21.17;14.20;;;;;;;;;;5044905;28;20428;-76
2023/03/08 10:04:57;;;;;;;18.63;13.13;;;;;;;;;;5056735;28;20029;-76
2023/03/08 10:07:26;;;;;;;15.90;11.47;;;;;;;;;;5055590;28;20112;-77
2023/03/08 10:09:56;;;;;;;18.00;12.40;;;;;;;;;;5058634;28;20028;-77
2023/03/08 10:12:41;;;;;;;16.83;12.20;;;;;;;;;;5061054;28;20025;-76
2023/03/08 10:15:14;;;;;;;18.27;12.90;;;;;;;;;;5069525;28;20112;-76
2023/03/08 10:18:01;;;;;;;19.30;12.33;;;;;;;;;;5074591;28;20087;-76
2023/03/08 10:23:18;;;;;;;17.17;12.10;;;;;;;;;;5003301;28;20039;-76
2023/03/08 10:25:45;;;;;;;17.57;12.57;;;;;;;;;;5007264;28;20048;-76
2023/03/08 10:28:13;;;;;;;17.77;12.20;;;;;;;;;;4992272;28;20503;-76
2023/03/08 10:30:47;;;;;;;16.00;11.27;;;;;;;;;;5006004;28;20030;-76
2023/03/08 10:33:14;;;;;;;15.83;11.40;;;;;;;;;;5004190;28;20541;-75
2023/03/08 10:35:52;;;;;;;15.40;11.30;;;;;;;;;;4992796;28;20052;-76
2023/03/08 10:38:18;;;;;;;17.57;11.03;;;;;;;;;;4999699;28;20034;-76
2023/03/08 10:40:44;;;;;;;17.27;11.37;;;;;;;;;;5005808;28;20508;-76
2023/03/08 10:43:17;;;;;;;18.37;12.90;;;;;;;;;;5003684;28;20112;-76
2023/03/08 10:45:43;;;;;;;18.47;12.57;;;;;;;;;;5003226;28;20038;-75
2023/03/08 10:48:19;;;;;;;15.77;11.60;;;;;;;;;;4986136;28;20046;-76
2023/03/08 10:50:45;;;;;;;14.43;10.97;;;;;;;;;;4991539;28;20510;-76
2023/03/08 10:53:22;;;;;;;18.00;11.27;;;;;;;;;;4987427;28;20049;-76
2023/03/08 10:55:49;;;;;;;13.33;10.40;;;;;;;;;;5001638;28;20124;-75
2023/03/08 10:58:28;;;;;;;12.70;9.67;;;;;;;;;;5001131;28;20038;-75
2023/03/08 11:00:55;;;;;;;14.10;10.60;;;;;;;;;;5034285;28;20055;-75
2023/03/08 11:03:23;;;;;;;15.40;10.50;;;;;;;;;;5044382;28;20468;-76
2023/03/08 11:05:54;;;;;;;15.00;11.23;;;;;;;;;;5039552;28;20032;-75
2023/03/08 11:08:22;;;;;;;15.60;11.57;;;;;;;;;;5040243;28;20167;-76
2023/03/08 11:10:48;;;;;;;23.90;12.17;;;;;;;;;;5059286;28;20361;-75
2023/03/08 11:13:23;;;;;;;14.67;10.97;;;;;;;;;;5057299;28;20048;-75
2023/03/08 11:15:56;;;;;;;16.77;11.20;;;;;;;;;;5055950;28;20064;-75
2023/03/08 11:18:41;;;;;;;15.77;10.27;;;;;;;;;;5051836;28;20024;-75
2023/03/08 11:21:13;;;;;;;13.83;9.33;;;;;;;;;;5055612;28;20029;-74
2023/03/08 11:23:44;;;;;;;13.38;10.45;;;;;;;;;;5055828;28;20025;-75
2023/03/08 11:26:11;;;;;;;20.37;12.30;;;;;;;;;;5039751;28;20140;-76
2023/03/08 11:28:55;;;;;;;15.60;10.83;;;;;;;;;;5048535;28;20033;-78
2023/03/08 11:31:26;;;;;;;18.47;11.87;;;;;;;;;;5058327;28;20058;-76
2023/03/08 11:33:58;;;;;;;15.40;10.80;;;;;;;;;;5056496;28;20025;-76
2023/03/08 11:36:37;;;;;;;12.85;9.10;;;;;;;;;;5055811;28;20449;-75
2023/03/08 11:39:22;;;;;;;12.63;9.47;;;;;;;;;;5040134;28;20105;-76
2023/03/08 11:41:50;;;;;;;16.70;11.47;;;;;;;;;;5057124;28;20025;-76
2023/03/08 11:44:16;;;;;;;13.80;10.13;;;;;;;;;;5047155;28;20020;-75
2023/03/08 11:46:45;;;;;;;16.13;11.13;;;;;;;;;;5041147;28;20025;-76
2023/03/08 11:49:36;;;;;;;13.53;9.00;;;;;;;;;;5038118;28;20064;-75
2023/03/08 11:52:25;;;;;;;11.80;8.50;;;;;;;;;;5040410;28;20048;-75
2023/03/08 11:55:03;;;;;;;11.90;8.53;;;;;;;;;;5046587;28;20043;-75
2023/03/08 11:57:33;;;;;;;12.63;9.43;;;;;;;;;;5047745;28;20078;-75
2023/03/08 12:00:10;;;;;;;13.47;9.97;;;;;;;;;;5036406;28;20029;-75
2023/03/08 12:02:41;;;;;;;12.87;8.70;;;;;;;;;;5036160;28;20863;-75
2023/03/08 12:05:20;;;;;;;11.03;8.50;;;;;;;;;;5054795;28;20028;-75
2023/03/08 12:07:51;;;;;;;12.20;8.80;;;;;;;;;;5053232;28;20099;-75
2023/03/08 12:10:32;;;;;;;13.00;9.60;;;;;;;;;;5053131;28;20361;-75
2023/03/08 12:13:02;;;;;;;10.27;7.87;;;;;;;;;;5054821;28;20043;-75
2023/03/08 12:15:38;;;;;;;10.67;8.90;;;;;;;;;;5056316;28;20024;-75
2023/03/08 12:18:14;;;;;;;11.43;8.90;;;;;;;;;;5054260;28;20024;-75
2023/03/08 12:20:41;;;;;;;12.37;7.87;;;;;;;;;;5055928;28;20056;-75
2023/03/08 12:23:26;;;;;;;11.87;8.37;;;;;;;;;;5055214;28;20032;-75
2023/03/08 12:25:55;;;;;;;12.63;8.20;;;;;;;;;;5051573;28;20058;-75
2023/03/08 12:28:34;;;;;;;12.77;8.77;;;;;;;;;;5042091;28;20029;-76
2023/03/08 12:31:03;;;;;;;15.50;9.70;;;;;;;;;;5044087;28;20021;-75
2023/03/08 12:33:31;;;;;;;12.87;9.07;;;;;;;;;;5058398;28;20408;-76
2023/03/08 12:36:01;;;;;;;10.40;8.17;;;;;;;;;;5047390;28;20059;-74
2023/03/08 12:38:45;;;;;;;11.00;8.77;;;;;;;;;;5055568;28;20036;-76
2023/03/08 12:41:37;;;;;;;13.47;9.10;;;;;;;;;;5053939;28;20538;-75
2023/03/08 12:44:07;;;;;;;10.05;8.15;;;;;;;;;;5033696;28;20133;-75
2023/03/08 12:46:47;;;;;;;11.17;8.30;;;;;;;;;;5047042;28;20104;-75
2023/03/08 12:49:21;;;;;;;12.00;8.83;;;;;;;;;;5058629;28;20048;-75
2023/03/08 12:51:55;;;;;;;12.37;9.17;;;;;;;;;;5057087;28;20173;-76
2023/03/08 12:54:22;;;;;;;10.60;8.50;;;;;;;;;;5042420;28;20115;-76
2023/03/08 12:56:53;;;;;;;12.20;8.33;;;;;;;;;;5059928;28;20766;-76
2023/03/08 12:59:19;;;;;;;9.03;7.63;;;;;;;;;;5056959;28;20036;-76
2023/03/08 13:01:47;;;;;;;11.03;8.63;;;;;;;;;;5056175;28;20029;-76
2023/03/08 13:04:30;;;;;;;12.87;7.50;;;;;;;;;;5055643;28;20032;-76
2023/03/08 13:06:58;;;;;;;9.10;7.67;;;;;;;;;;5043245;28;20017;-76
2023/03/08 13:09:29;;;;;;;9.37;7.53;;;;;;;;;;5039292;28;20078;-76
2023/03/08 13:12:04;;;;;;;9.53;8.03;;;;;;;;;;5040642;28;20029;-76
2023/03/08 13:14:40;;;;;;;10.60;8.70;;;;;;;;;;5056827;28;20043;-75
2023/03/08 13:17:28;;;;;;;10.53;8.60;;;;;;;;;;5043576;28;20039;-75
2023/03/08 13:19:54;;;;;;;12.63;9.03;;;;;;;;;;5043706;28;20052;-75
2023/03/08 13:22:26;;;;;;;11.60;8.80;;;;;;;;;;5057410;28;20184;-75
2023/03/08 13:24:55;;;;;;;11.00;9.63;;;;;;;;;;5054935;28;20021;-75
2023/03/08 13:27:24;;;;;;;10.90;8.67;;;;;;;;;;5039967;28;20032;-76
2023/03/08 13:29:53;;;;;;;12.67;9.77;;;;;;;;;;5057579;28;20111;-76
2023/03/08 13:32:20;;;;;;;12.67;9.80;;;;;;;;;;5043476;28;20033;-75
2023/03/08 13:35:00;;;;;;;12.80;9.77;;;;;;;;;;5057671;28;20098;-76
2023/03/08 13:37:30;;;;;;;13.37;9.93;;;;;;;;;;5055323;28;20119;-75
2023/03/08 13:39:58;;;;;;;10.77;8.57;;;;;;;;;;5043075;28;20041;-76
2023/03/08 13:42:24;;;;;;;14.50;9.70;;;;;;;;;;5036381;28;20044;-75
2023/03/08 13:45:05;;;;;;;13.53;9.90;;;;;;;;;;5038310;28;20039;-76
2023/03/08 13:47:33;;;;;;;12.27;9.23;;;;;;;;;;5059870;28;20029;-76
2023/03/08 13:49:59;;;;;;;11.63;9.20;;;;;;;;;;5042898;28;20025;-76
2023/03/08 13:52:30;;;;;;;12.80;9.40;;;;;;;;;;5057360;28;20039;-76
2023/03/08 13:54:59;;;;;;;11.97;9.00;;;;;;;;;;5060167;28;20032;-75
2023/03/08 13:57:29;;;;;;;12.37;9.97;;;;;;;;;;5060470;28;20453;-76
2023/03/08 13:59:59;;;;;;;14.97;10.13;;;;;;;;;;5060941;28;20028;-76
2023/03/08 14:02:27;;;;;;;13.90;9.73;;;;;;;;;;5042586;28;20111;-76
2023/03/08 14:04:53;;;;;;;15.73;11.50;;;;;;;;;;5042418;28;20028;-76
2023/03/08 14:07:29;;;;;;;17.70;12.00;;;;;;;;;;5058494;28;20036;-76
2023/03/08 14:09:56;;;;;;;14.40;11.07;;;;;;;;;;5042192;28;20059;-76
2023/03/08 14:12:24;;;;;;;12.00;10.20;;;;;;;;;;5058714;28;20120;-76
2023/03/08 14:15:04;;;;;;;13.97;10.47;;;;;;;;;;5061184;28;20037;-76
2023/03/08 14:17:32;;;;;;;13.70;10.77;;;;;;;;;;5046510;28;20115;-76
2023/03/08 14:20:03;;;;;;;14.97;11.40;;;;;;;;;;5061068;28;20109;-76
2023/03/08 14:22:30;;;;;;;16.43;11.93;;;;;;;;;;5042695;28;20037;-76
2023/03/08 14:25:00;;;;;;;16.07;11.07;;;;;;;;;;5058709;28;20611;-76
2023/03/08 14:27:40;;;;;;;19.57;13.87;;;;;;;;;;5041638;28;20112;-76
2023/03/08 14:30:09;;;;;;;16.20;12.90;;;;;;;;;;5059501;28;20389;-75
2023/03/08 14:32:37;;;;;;;15.50;12.53;;;;;;;;;;5059049;28;20029;-76